createdAt,value
2023-04-01T00:00:34.855Z,992.22
2023-04-01T00:01:34.844Z,992.22
2023-04-01T00:02:34.962Z,992.21
2023-04-01T00:03:34.969Z,992.21
2023-04-01T00:04:34.863Z,992.22
2023-04-01T00:05:34.996Z,992.22
2023-04-01T00:06:34.792Z,992.21
2023-04-01T00:07:34.778Z,992.20
2023-04-01T00:08:34.777Z,992.20
2023-04-01T00:09:34.775Z,992.20
2023-04-01T00:10:34.753Z,992.20
2023-04-01T00:11:34.778Z,992.20
2023-04-01T00:12:34.727Z,992.21
2023-04-01T00:13:34.770Z,992.21
2023-04-01T00:14:34.708Z,992.21
2023-04-01T00:15:34.695Z,992.20
2023-04-01T00:16:34.743Z,992.20
2023-04-01T00:17:34.717Z,992.19
2023-04-01T00:18:34.677Z,992.20
2023-04-01T00:19:34.664Z,992.19
2023-04-01T00:20:34.646Z,992.20
2023-04-01T00:21:34.649Z,992.20
2023-04-01T00:22:34.620Z,992.21
2023-04-01T00:23:34.640Z,992.21
2023-04-01T00:24:34.600Z,992.21
2023-04-01T00:25:34.932Z,992.21
2023-04-01T00:26:34.585Z,992.21
2023-04-01T00:27:34.572Z,992.20
2023-04-01T00:28:34.574Z,992.20
2023-04-01T00:29:34.541Z,992.20
2023-04-01T00:30:34.540Z,992.18
2023-04-01T00:31:34.558Z,992.18
2023-04-01T00:32:34.565Z,992.17
2023-04-01T00:33:34.537Z,992.17
2023-04-01T00:34:34.516Z,992.17
2023-04-01T00:35:34.647Z,992.17
2023-04-01T00:36:34.492Z,992.17
2023-04-01T00:37:34.460Z,992.16
2023-04-01T00:38:34.476Z,992.16
2023-04-01T00:39:34.495Z,992.16
2023-04-01T00:40:34.450Z,992.16
2023-04-01T00:41:34.426Z,992.16
2023-04-01T00:42:34.435Z,992.15
2023-04-01T00:43:34.411Z,992.16
2023-04-01T00:44:34.387Z,992.15
2023-04-01T00:45:34.571Z,992.15
2023-04-01T00:46:34.389Z,992.14
2023-04-01T00:47:34.388Z,992.13
2023-04-01T00:48:34.372Z,992.14
2023-04-01T00:49:34.340Z,992.14
2023-04-01T00:50:34.337Z,992.14
2023-04-01T00:51:34.322Z,992.15
2023-04-01T00:52:34.336Z,992.16
2023-04-01T00:53:34.323Z,992.16
2023-04-01T00:54:34.297Z,992.16
2023-04-01T00:55:34.466Z,992.16
2023-04-01T00:56:34.281Z,992.16
2023-04-01T00:57:34.294Z,992.17
2023-04-01T00:58:34.303Z,992.18
2023-04-01T00:59:34.232Z,992.18
2023-04-01T01:00:34.253Z,992.19
2023-04-01T01:01:34.222Z,992.18
2023-04-01T01:02:34.280Z,992.19
2023-04-01T01:03:34.210Z,992.19
2023-04-01T01:04:34.198Z,992.20
2023-04-01T01:05:42.425Z,992.20
2023-04-01T01:06:34.170Z,992.20
2023-04-01T01:07:34.159Z,992.21
2023-04-01T01:08:34.167Z,992.21
2023-04-01T01:09:34.119Z,992.21
2023-04-01T01:10:34.124Z,992.20
2023-04-01T01:11:42.621Z,992.20
2023-04-01T01:12:34.111Z,992.19
2023-04-01T01:13:34.106Z,992.19
2023-04-01T01:14:34.094Z,992.19
2023-04-01T01:15:34.290Z,992.19
2023-04-01T01:16:34.121Z,992.18
2023-04-01T01:17:34.145Z,992.18
2023-04-01T01:18:34.036Z,992.19
2023-04-01T01:19:34.044Z,992.18
2023-04-01T01:20:34.025Z,992.18
2023-04-01T01:21:34.018Z,992.18
2023-04-01T01:22:34.012Z,992.19
2023-04-01T01:23:33.976Z,992.19
2023-04-01T01:24:33.972Z,992.20
2023-04-01T01:25:34.215Z,992.20
2023-04-01T01:26:33.951Z,992.21
2023-04-01T01:27:33.977Z,992.21
2023-04-01T01:28:33.986Z,992.22
2023-04-01T01:29:33.933Z,992.23
2023-04-01T01:30:33.949Z,992.23
2023-04-01T01:31:33.904Z,992.23
2023-04-01T01:32:33.920Z,992.23
2023-04-01T01:33:33.910Z,992.24
2023-04-01T01:34:33.883Z,992.25
2023-04-01T01:35:34.176Z,992.26
2023-04-01T01:36:33.842Z,992.27
2023-04-01T01:37:33.841Z,992.28
2023-04-01T01:38:33.846Z,992.27
2023-04-01T01:39:33.832Z,992.27
2023-04-01T01:40:33.840Z,992.27
2023-04-01T01:41:33.791Z,992.27
2023-04-01T01:42:33.776Z,992.27
2023-04-01T01:43:33.822Z,992.27
2023-04-01T01:44:33.774Z,992.28
2023-04-01T01:45:33.927Z,992.28
2023-04-01T01:46:33.816Z,992.28
2023-04-01T01:47:33.749Z,992.27
2023-04-01T01:48:33.759Z,992.27
2023-04-01T01:49:33.718Z,992.27
2023-04-01T01:50:33.698Z,992.29
2023-04-01T01:51:33.687Z,992.29
2023-04-01T01:52:33.688Z,992.29
2023-04-01T01:53:33.738Z,992.29
2023-04-01T01:54:33.657Z,992.29
2023-04-01T01:55:34.153Z,992.31
2023-04-01T01:56:33.639Z,992.32
2023-04-01T01:57:33.700Z,992.33
2023-04-01T01:58:33.621Z,992.34
2023-04-01T01:59:33.619Z,992.35
2023-04-01T02:00:33.599Z,992.36
2023-04-01T02:01:33.653Z,992.38
2023-04-01T02:02:33.598Z,992.38
2023-04-01T02:03:33.573Z,992.38
2023-04-01T02:04:33.575Z,992.39
2023-04-01T02:05:33.719Z,992.38
2023-04-01T02:06:33.529Z,992.38
2023-04-01T02:07:33.528Z,992.38
2023-04-01T02:08:33.517Z,992.37
2023-04-01T02:09:33.505Z,992.36
2023-04-01T02:10:33.490Z,992.37
2023-04-01T02:11:33.486Z,992.37
2023-04-01T02:12:33.479Z,992.36
2023-04-01T02:13:33.455Z,992.37
2023-04-01T02:14:33.445Z,992.36
2023-04-01T02:15:33.642Z,992.36
2023-04-01T02:16:33.497Z,992.35
2023-04-01T02:17:33.427Z,992.35
2023-04-01T02:18:33.409Z,992.35
2023-04-01T02:19:33.390Z,992.35
2023-04-01T02:20:33.369Z,992.35
2023-04-01T02:21:33.381Z,992.36
2023-04-01T02:22:33.354Z,992.37
2023-04-01T02:23:33.379Z,992.36
2023-04-01T02:24:33.338Z,992.36
2023-04-01T02:25:33.506Z,992.36
2023-04-01T02:26:33.314Z,992.37
2023-04-01T02:27:33.360Z,992.38
2023-04-01T02:28:33.289Z,992.38
2023-04-01T02:29:33.317Z,992.38
2023-04-01T02:30:33.302Z,992.39
2023-04-01T02:31:33.297Z,992.39
2023-04-01T02:32:33.292Z,992.40
2023-04-01T02:33:33.240Z,992.41
2023-04-01T02:34:33.259Z,992.41
2023-04-01T02:35:33.565Z,992.41
2023-04-01T02:36:33.220Z,992.42
2023-04-01T02:37:34.355Z,992.41
2023-04-01T02:38:33.209Z,992.42
2023-04-01T02:39:33.201Z,992.43
2023-04-01T02:40:33.158Z,992.44
2023-04-01T02:41:33.167Z,992.44
2023-04-01T02:42:33.139Z,992.45
2023-04-01T02:43:33.128Z,992.45
2023-04-01T02:44:33.137Z,992.45
2023-04-01T02:45:33.259Z,992.45
2023-04-01T02:46:33.114Z,992.47
2023-04-01T02:47:33.200Z,992.48
2023-04-01T02:48:33.103Z,992.50
2023-04-01T02:49:33.104Z,992.50
2023-04-01T02:50:33.085Z,992.52
2023-04-01T02:51:33.150Z,992.53
2023-04-01T02:52:33.038Z,992.54
2023-04-01T02:53:33.610Z,992.55
2023-04-01T02:54:33.050Z,992.56
2023-04-01T02:55:33.249Z,992.57
2023-04-01T02:56:33.021Z,992.57
2023-04-01T02:57:33.011Z,992.58
2023-04-01T02:58:32.982Z,992.58
2023-04-01T02:59:32.989Z,992.59
2023-04-01T03:00:32.957Z,992.60
2023-04-01T03:01:33.002Z,992.60
2023-04-01T03:02:33.064Z,992.61
2023-04-01T03:03:32.970Z,992.61
2023-04-01T03:04:32.934Z,992.62
2023-04-01T03:05:33.068Z,992.62
2023-04-01T03:06:32.906Z,992.62
2023-04-01T03:07:32.906Z,992.62
2023-04-01T03:08:32.877Z,992.62
2023-04-01T03:09:32.921Z,992.61
2023-04-01T03:10:32.858Z,992.60
2023-04-01T03:11:32.837Z,992.58
2023-04-01T03:12:32.871Z,992.60
2023-04-01T03:13:32.828Z,992.60
2023-04-01T03:14:32.862Z,992.59
2023-04-01T03:15:33.079Z,992.60
2023-04-01T03:16:32.810Z,992.60
2023-04-01T03:17:32.824Z,992.60
2023-04-01T03:18:32.781Z,992.60
2023-04-01T03:19:32.770Z,992.61
2023-04-01T03:20:32.762Z,992.62
2023-04-01T03:21:32.732Z,992.62
2023-04-01T03:22:32.739Z,992.63
2023-04-01T03:23:32.720Z,992.64
2023-04-01T03:24:32.770Z,992.64
2023-04-01T03:25:32.926Z,992.65
2023-04-01T03:26:32.676Z,992.66
2023-04-01T03:27:32.686Z,992.66
2023-04-01T03:28:32.653Z,992.66
2023-04-01T03:29:32.666Z,992.67
2023-04-01T03:30:32.701Z,992.67
2023-04-01T03:31:32.686Z,992.67
2023-04-01T03:32:32.654Z,992.68
2023-04-01T03:33:32.626Z,992.67
2023-04-01T03:34:32.641Z,992.70
2023-04-01T03:35:32.779Z,992.71
2023-04-01T03:36:32.600Z,992.71
2023-04-01T03:37:32.560Z,992.72
2023-04-01T03:38:32.577Z,992.72
2023-04-01T03:39:32.555Z,992.73
2023-04-01T03:40:32.539Z,992.73
2023-04-01T03:41:32.525Z,992.74
2023-04-01T03:42:32.602Z,992.74
2023-04-01T03:43:32.531Z,992.75
2023-04-01T03:44:32.523Z,992.75
2023-04-01T03:45:32.701Z,992.77
2023-04-01T03:46:32.527Z,992.77
2023-04-01T03:47:32.547Z,992.79
2023-04-01T03:48:32.449Z,992.80
2023-04-01T03:49:32.659Z,992.81
2023-04-01T03:50:32.430Z,992.83
2023-04-01T03:51:32.424Z,992.84
2023-04-01T03:52:32.406Z,992.84
2023-04-01T03:53:32.411Z,992.85
2023-04-01T03:54:32.396Z,992.86
2023-04-01T03:55:32.555Z,992.87
2023-04-01T03:56:32.363Z,992.87
2023-04-01T03:57:32.509Z,992.88
2023-04-01T03:58:32.336Z,992.89
2023-04-01T03:59:32.357Z,992.89
2023-04-01T04:00:32.351Z,992.90
2023-04-01T04:01:32.332Z,992.90
2023-04-01T04:02:32.346Z,992.91
2023-04-01T04:03:32.383Z,992.93
2023-04-01T04:04:32.341Z,992.94
2023-04-01T04:05:32.709Z,992.94
2023-04-01T04:06:32.261Z,992.95
2023-04-01T04:07:32.253Z,992.96
2023-04-01T04:08:32.234Z,992.97
2023-04-01T04:09:32.248Z,992.98
2023-04-01T04:10:32.214Z,992.98
2023-04-01T04:11:32.210Z,992.99
2023-04-01T04:12:32.222Z,992.99
2023-04-01T04:13:32.197Z,993.01
2023-04-01T04:14:32.215Z,993.02
2023-04-01T04:15:32.237Z,993.03
2023-04-01T04:16:32.257Z,993.03
2023-04-01T04:17:32.195Z,993.03
2023-04-01T04:18:32.111Z,993.04
2023-04-01T04:19:32.096Z,993.04
2023-04-01T04:20:32.114Z,993.06
2023-04-01T04:21:32.131Z,993.04
2023-04-01T04:22:32.161Z,993.04
2023-04-01T04:23:32.045Z,993.05
2023-04-01T04:24:32.123Z,993.06
2023-04-01T04:25:32.202Z,993.09
2023-04-01T04:26:31.986Z,993.09
2023-04-01T04:27:32.001Z,993.11
2023-04-01T04:28:32.199Z,993.11
2023-04-01T04:29:31.993Z,993.12
2023-04-01T04:30:31.958Z,993.12
2023-04-01T04:31:32.006Z,993.12
2023-04-01T04:32:32.022Z,993.12
2023-04-01T04:33:31.920Z,993.13
2023-04-01T04:34:31.925Z,993.14
2023-04-01T04:35:32.201Z,993.15
2023-04-01T04:36:31.890Z,993.15
2023-04-01T04:37:31.960Z,993.16
2023-04-01T04:38:31.879Z,993.18
2023-04-01T04:39:31.877Z,993.19
2023-04-01T04:40:31.843Z,993.20
2023-04-01T04:41:31.843Z,993.19
2023-04-01T04:42:31.839Z,993.20
2023-04-01T04:43:31.845Z,993.19
2023-04-01T04:44:31.821Z,993.20
2023-04-01T04:45:32.029Z,993.21
2023-04-01T04:46:31.822Z,993.21
2023-04-01T04:47:31.794Z,993.22
2023-04-01T04:48:31.765Z,993.22
2023-04-01T04:49:31.775Z,993.23
2023-04-01T04:50:31.765Z,993.24
2023-04-01T04:51:31.778Z,993.25
2023-04-01T04:52:31.722Z,993.26
2023-04-01T04:53:31.744Z,993.26
2023-04-01T04:54:31.726Z,993.26
2023-04-01T04:55:31.956Z,993.26
2023-04-01T04:56:31.702Z,993.26
2023-04-01T04:57:31.739Z,993.26
2023-04-01T04:58:31.655Z,993.26
2023-04-01T04:59:31.681Z,993.26
2023-04-01T05:00:31.639Z,993.26
2023-04-01T05:01:31.673Z,993.26
2023-04-01T05:02:31.734Z,993.26
2023-04-01T05:03:31.868Z,993.26
2023-04-01T05:04:31.611Z,993.26
2023-04-01T05:05:31.865Z,993.27
2023-04-01T05:06:31.583Z,993.27
2023-04-01T05:07:31.562Z,993.27
2023-04-01T05:08:31.543Z,993.29
2023-04-01T05:09:31.573Z,993.28
2023-04-01T05:10:31.545Z,993.31
2023-04-01T05:11:31.524Z,993.32
2023-04-01T05:12:31.574Z,993.33
2023-04-01T05:13:31.492Z,993.35
2023-04-01T05:14:31.526Z,993.35
2023-04-01T05:15:31.796Z,993.35
2023-04-01T05:16:31.621Z,993.35
2023-04-01T05:17:31.496Z,993.35
2023-04-01T05:18:31.469Z,993.35
2023-04-01T05:19:31.465Z,993.35
2023-04-01T05:20:31.422Z,993.36
2023-04-01T05:21:31.440Z,993.36
2023-04-01T05:22:31.397Z,993.36
2023-04-01T05:23:31.440Z,993.37
2023-04-01T05:24:31.407Z,993.38
2023-04-01T05:25:31.685Z,993.39
2023-04-01T05:26:31.366Z,993.40
2023-04-01T05:27:31.371Z,993.40
2023-04-01T05:28:31.335Z,993.41
2023-04-01T05:29:31.338Z,993.42
2023-04-01T05:30:31.342Z,993.43
2023-04-01T05:31:31.328Z,993.45
2023-04-01T05:32:31.311Z,993.45
2023-04-01T05:33:31.293Z,993.46
2023-04-01T05:34:31.307Z,993.46
2023-04-01T05:35:31.596Z,993.46
2023-04-01T05:36:31.253Z,993.47
2023-04-01T05:37:31.262Z,993.47
2023-04-01T05:38:31.237Z,993.48
2023-04-01T05:39:31.246Z,993.48
2023-04-01T05:40:31.224Z,993.49
2023-04-01T05:41:31.208Z,993.49
2023-04-01T05:42:31.199Z,993.49
2023-04-01T05:43:31.254Z,993.49
2023-04-01T05:44:31.200Z,993.49
2023-04-01T05:45:31.537Z,993.50
2023-04-01T05:46:31.247Z,993.51
2023-04-01T05:47:37.334Z,993.52
2023-04-01T05:48:31.137Z,993.54
2023-04-01T05:49:31.134Z,993.55
2023-04-01T05:50:31.114Z,993.56
2023-04-01T05:51:31.117Z,993.56
2023-04-01T05:52:31.105Z,993.57
2023-04-01T05:53:31.086Z,993.58
2023-04-01T05:54:31.125Z,993.59
2023-04-01T05:55:31.206Z,993.60
2023-04-01T05:56:31.053Z,993.61
2023-04-01T05:57:31.088Z,993.62
2023-04-01T05:58:31.041Z,993.63
2023-04-01T05:59:31.031Z,993.63
2023-04-01T06:00:31.027Z,993.64
2023-04-01T06:01:30.992Z,993.65
2023-04-01T06:02:31.032Z,993.66
2023-04-01T06:03:31.059Z,993.67
2023-04-01T06:04:31.040Z,993.68
2023-04-01T06:05:31.044Z,993.69
2023-04-01T06:06:30.952Z,993.70
2023-04-01T06:07:30.959Z,993.71
2023-04-01T06:08:30.949Z,993.72
2023-04-01T06:09:30.962Z,993.73
2023-04-01T06:10:30.916Z,993.74
2023-04-01T06:11:30.934Z,993.74
2023-04-01T06:12:30.913Z,993.75
2023-04-01T06:13:30.887Z,993.76
2023-04-01T06:14:30.873Z,993.77
2023-04-01T06:15:31.150Z,993.77
2023-04-01T06:16:30.913Z,993.78
2023-04-01T06:17:30.844Z,993.80
2023-04-01T06:18:30.818Z,993.81
2023-04-01T06:19:30.802Z,993.82
2023-04-01T06:20:30.855Z,993.83
2023-04-01T06:21:30.792Z,993.85
2023-04-01T06:22:30.794Z,993.86
2023-04-01T06:23:30.761Z,993.87
2023-04-01T06:24:30.804Z,993.87
2023-04-01T06:25:30.833Z,993.88
2023-04-01T06:26:30.724Z,993.89
2023-04-01T06:27:30.745Z,993.91
2023-04-01T06:28:30.700Z,993.92
2023-04-01T06:29:30.696Z,993.93
2023-04-01T06:30:30.711Z,993.92
2023-04-01T06:31:30.745Z,993.95
2023-04-01T06:32:30.740Z,993.96
2023-04-01T06:33:30.661Z,993.97
2023-04-01T06:34:30.668Z,993.98
2023-04-01T06:35:30.729Z,993.99
2023-04-01T06:36:30.702Z,994.00
2023-04-01T06:37:30.661Z,994.00
2023-04-01T06:38:30.627Z,994.01
2023-04-01T06:39:30.592Z,994.02
2023-04-01T06:40:30.670Z,994.02
2023-04-01T06:41:30.583Z,994.02
2023-04-01T06:42:30.573Z,994.03
2023-04-01T06:43:30.568Z,994.02
2023-04-01T06:44:30.538Z,994.02
2023-04-01T06:45:30.930Z,994.03
2023-04-01T06:46:30.576Z,994.04
2023-04-01T06:47:30.569Z,994.04
2023-04-01T06:48:30.503Z,994.05
2023-04-01T06:49:30.482Z,994.05
2023-04-01T06:50:30.536Z,994.06
2023-04-01T06:51:30.473Z,994.07
2023-04-01T06:52:30.476Z,994.07
2023-04-01T06:53:30.452Z,994.07
2023-04-01T06:54:30.516Z,994.07
2023-04-01T06:55:30.849Z,994.08
2023-04-01T06:56:30.450Z,994.08
2023-04-01T06:57:30.598Z,994.09
2023-04-01T06:58:30.394Z,994.09
2023-04-01T06:59:30.391Z,994.09
2023-04-01T07:00:31.615Z,994.09
2023-04-01T07:01:30.410Z,994.10
2023-04-01T07:02:30.427Z,994.11
2023-04-01T07:03:30.368Z,994.11
2023-04-01T07:04:30.496Z,994.12
2023-04-01T07:05:30.632Z,994.13
2023-04-01T07:06:30.312Z,994.13
2023-04-01T07:07:30.301Z,994.14
2023-04-01T07:08:30.302Z,994.15
2023-04-01T07:09:30.273Z,994.15
2023-04-01T07:10:30.279Z,994.13
2023-04-01T07:11:30.268Z,994.16
2023-04-01T07:12:30.239Z,994.16
2023-04-01T07:13:30.242Z,994.17
2023-04-01T07:14:30.221Z,994.17
2023-04-01T07:15:30.223Z,994.18
2023-04-01T07:16:30.256Z,994.19
2023-04-01T07:17:30.209Z,994.20
2023-04-01T07:18:30.273Z,994.20
2023-04-01T07:19:30.191Z,994.20
2023-04-01T07:20:30.249Z,994.21
2023-04-01T07:21:31.933Z,994.22
2023-04-01T07:22:30.161Z,994.23
2023-04-01T07:23:30.124Z,994.23
2023-04-01T07:24:30.155Z,994.23
2023-04-01T07:25:30.132Z,994.24
2023-04-01T07:26:30.105Z,994.26
2023-04-01T07:27:30.101Z,994.26
2023-04-01T07:28:30.120Z,994.26
2023-04-01T07:29:30.060Z,994.27
2023-04-01T07:30:30.082Z,994.28
2023-04-01T07:31:30.155Z,994.29
2023-04-01T07:32:30.187Z,994.30
2023-04-01T07:33:30.029Z,994.31
2023-04-01T07:34:30.024Z,994.32
2023-04-01T07:35:30.013Z,994.32
2023-04-01T07:36:29.994Z,994.33
2023-04-01T07:37:30.020Z,994.34
2023-04-01T07:38:30.038Z,994.35
2023-04-01T07:39:30.037Z,994.35
2023-04-01T07:40:29.973Z,994.35
2023-04-01T07:41:29.954Z,994.33
2023-04-01T07:42:29.952Z,994.33
2023-04-01T07:43:29.949Z,994.35
2023-04-01T07:44:29.976Z,994.34
2023-04-01T07:45:29.892Z,994.35
2023-04-01T07:46:29.894Z,994.35
2023-04-01T07:47:29.957Z,994.37
2023-04-01T07:48:29.903Z,994.38
2023-04-01T07:49:29.876Z,994.38
2023-04-01T07:50:29.895Z,994.38
2023-04-01T07:51:29.849Z,994.38
2023-04-01T07:52:29.826Z,994.39
2023-04-01T07:53:29.842Z,994.39
2023-04-01T07:54:29.818Z,994.39
2023-04-01T07:55:29.937Z,994.39
2023-04-01T07:56:29.835Z,994.40
2023-04-01T07:57:29.822Z,994.42
2023-04-01T07:58:29.779Z,994.43
2023-04-01T07:59:29.747Z,994.44
2023-04-01T08:00:29.786Z,994.45
2023-04-01T08:01:29.721Z,994.47
2023-04-01T08:02:29.767Z,994.49
2023-04-01T08:03:29.905Z,994.50
2023-04-01T08:04:29.756Z,994.51
2023-04-01T08:05:29.704Z,994.52
2023-04-01T08:06:29.671Z,994.53
2023-04-01T08:07:29.670Z,994.54
2023-04-01T08:08:29.680Z,994.54
2023-04-01T08:09:29.825Z,994.55
2023-04-01T08:10:29.646Z,994.57
2023-04-01T08:11:29.631Z,994.58
2023-04-01T08:12:29.680Z,994.60
2023-04-01T08:13:29.646Z,994.62
2023-04-01T08:14:29.597Z,994.63
2023-04-01T08:15:29.649Z,994.63
2023-04-01T08:16:29.896Z,994.65
2023-04-01T08:17:29.579Z,994.64
2023-04-01T08:18:29.575Z,994.65
2023-04-01T08:19:29.540Z,994.65
2023-04-01T08:20:29.587Z,994.66
2023-04-01T08:21:29.541Z,994.66
2023-04-01T08:22:29.490Z,994.67
2023-04-01T08:23:29.516Z,994.66
2023-04-01T08:24:34.440Z,994.69
2023-04-01T08:25:29.563Z,994.71
2023-04-01T08:26:29.477Z,994.72
2023-04-01T08:27:29.452Z,994.74
2023-04-01T08:28:29.461Z,994.76
2023-04-01T08:29:29.439Z,994.77
2023-04-01T08:30:29.525Z,994.79
2023-04-01T08:31:29.443Z,994.80
2023-04-01T08:32:30.243Z,994.81
2023-04-01T08:33:29.428Z,994.83
2023-04-01T08:34:29.386Z,994.83
2023-04-01T08:35:31.717Z,994.84
2023-04-01T08:36:29.438Z,994.86
2023-04-01T08:37:29.354Z,994.88
2023-04-01T08:38:29.351Z,994.89
2023-04-01T08:39:29.354Z,994.90
2023-04-01T08:40:30.256Z,994.92
2023-04-01T08:41:29.588Z,994.92
2023-04-01T08:42:29.347Z,994.93
2023-04-01T08:43:29.549Z,994.94
2023-04-01T08:44:29.257Z,994.95
2023-04-01T08:45:29.321Z,994.95
2023-04-01T08:46:29.287Z,994.97
2023-04-01T08:47:29.291Z,994.98
2023-04-01T08:48:29.222Z,994.96
2023-04-01T08:49:29.228Z,994.97
2023-04-01T08:50:29.231Z,994.98
2023-04-01T08:51:29.201Z,995.00
2023-04-01T08:52:29.215Z,995.01
2023-04-01T08:53:29.155Z,995.01
2023-04-01T08:54:29.251Z,995.02
2023-04-01T08:55:29.165Z,995.01
2023-04-01T08:56:29.146Z,995.01
2023-04-01T08:57:29.199Z,995.00
2023-04-01T08:58:29.175Z,995.01
2023-04-01T08:59:29.834Z,994.99
2023-04-01T09:00:29.128Z,995.00
2023-04-01T09:01:29.212Z,995.00
2023-04-01T09:02:29.188Z,995.00
2023-04-01T09:03:29.187Z,995.00
2023-04-01T09:04:29.179Z,995.00
2023-04-01T09:05:29.092Z,995.00
2023-04-01T09:06:29.056Z,995.00
2023-04-01T09:07:29.100Z,995.01
2023-04-01T09:08:29.031Z,995.01
2023-04-01T09:09:29.705Z,995.02
2023-04-01T09:10:29.342Z,995.02
2023-04-01T09:11:29.035Z,995.02
2023-04-01T09:12:28.977Z,995.02
2023-04-01T09:13:28.955Z,995.04
2023-04-01T09:14:28.963Z,995.07
2023-04-01T09:15:29.073Z,995.08
2023-04-01T09:16:29.003Z,995.09
2023-04-01T09:17:29.067Z,995.10
2023-04-01T09:18:28.925Z,995.11
2023-04-01T09:19:28.937Z,995.14
2023-04-01T09:20:28.927Z,995.16
2023-04-01T09:21:28.907Z,995.18
2023-04-01T09:22:28.870Z,995.19
2023-04-01T09:23:28.868Z,995.20
2023-04-01T09:24:28.851Z,995.22
2023-04-01T09:25:28.980Z,995.23
2023-04-01T09:26:29.016Z,995.25
2023-04-01T09:27:28.931Z,995.27
2023-04-01T09:28:28.826Z,995.29
2023-04-01T09:29:28.892Z,995.30
2023-04-01T09:30:28.832Z,995.33
2023-04-01T09:31:28.849Z,995.35
2023-04-01T09:32:28.953Z,995.35
2023-04-01T09:33:28.813Z,995.38
2023-04-01T09:34:28.809Z,995.38
2023-04-01T09:35:28.785Z,995.38
2023-04-01T09:36:28.791Z,995.38
2023-04-01T09:37:28.725Z,995.39
2023-04-01T09:38:28.763Z,995.41
2023-04-01T09:39:28.709Z,995.41
2023-04-01T09:40:28.731Z,995.42
2023-04-01T09:41:28.679Z,995.44
2023-04-01T09:42:28.758Z,995.45
2023-04-01T09:43:28.700Z,995.46
2023-04-01T09:44:28.658Z,995.47
2023-04-01T09:45:28.702Z,995.50
2023-04-01T09:46:28.706Z,995.51
2023-04-01T09:47:29.920Z,995.53
2023-04-01T09:48:28.661Z,995.53
2023-04-01T09:49:28.621Z,995.57
2023-04-01T09:50:28.710Z,995.56
2023-04-01T09:51:28.805Z,995.57
2023-04-01T09:52:28.606Z,995.56
2023-04-01T09:53:28.556Z,995.58
2023-04-01T09:54:28.787Z,995.59
2023-04-01T09:55:28.525Z,995.60
2023-04-01T09:56:28.521Z,995.62
2023-04-01T09:57:28.677Z,995.63
2023-04-01T09:58:28.507Z,995.65
2023-04-01T09:59:28.557Z,995.64
2023-04-01T10:00:28.479Z,995.66
2023-04-01T10:01:28.623Z,995.67
2023-04-01T10:02:28.531Z,995.69
2023-04-01T10:03:29.889Z,995.71
2023-04-01T10:04:28.503Z,995.68
2023-04-01T10:05:28.477Z,995.70
2023-04-01T10:06:28.503Z,995.71
2023-04-01T10:07:28.405Z,995.70
2023-04-01T10:08:28.580Z,995.71
2023-04-01T10:09:28.444Z,995.73
2023-04-01T10:10:28.405Z,995.71
2023-04-01T10:11:28.354Z,995.71
2023-04-01T10:12:28.767Z,995.72
2023-04-01T10:13:28.401Z,995.72
2023-04-01T10:14:28.360Z,995.77
2023-04-01T10:15:28.371Z,995.77
2023-04-01T10:16:28.377Z,995.77
2023-04-01T10:17:28.329Z,995.77
2023-04-01T10:18:28.316Z,995.78
2023-04-01T10:19:28.277Z,995.79
2023-04-01T10:20:28.364Z,995.79
2023-04-01T10:21:28.296Z,995.80
2023-04-01T10:22:28.246Z,995.82
2023-04-01T10:23:28.418Z,995.82
2023-04-01T10:24:28.216Z,995.81
2023-04-01T10:25:28.249Z,995.82
2023-04-01T10:26:28.231Z,995.83
2023-04-01T10:27:28.466Z,995.84
2023-04-01T10:28:28.281Z,995.83
2023-04-01T10:29:28.373Z,995.82
2023-04-01T10:30:28.195Z,995.83
2023-04-01T10:31:28.230Z,995.82
2023-04-01T10:32:28.236Z,995.84
2023-04-01T10:33:28.131Z,995.85
2023-04-01T10:34:28.211Z,995.88
2023-04-01T10:35:28.175Z,995.86
2023-04-01T10:36:28.207Z,995.87
2023-04-01T10:37:28.093Z,995.88
2023-04-01T10:38:28.387Z,995.89
2023-04-01T10:39:28.045Z,995.92
2023-04-01T10:40:28.048Z,995.92
2023-04-01T10:41:28.074Z,995.94
2023-04-01T10:42:28.036Z,995.94
2023-04-01T10:43:28.040Z,995.94
2023-04-01T10:44:27.994Z,995.93
2023-04-01T10:45:28.018Z,995.95
2023-04-01T10:46:28.022Z,995.96
2023-04-01T10:47:28.003Z,995.95
2023-04-01T10:48:28.000Z,995.96
2023-04-01T10:49:28.018Z,995.94
2023-04-01T10:50:27.921Z,995.94
2023-04-01T10:51:27.960Z,995.93
2023-04-01T10:52:27.909Z,995.96
2023-04-01T10:53:27.906Z,995.97
2023-04-01T10:54:27.909Z,995.98
2023-04-01T10:55:27.879Z,995.97
2023-04-01T10:56:27.875Z,995.98
2023-04-01T10:57:27.944Z,995.98
2023-04-01T10:58:27.860Z,995.98
2023-04-01T10:59:27.825Z,996.00
2023-04-01T11:00:27.819Z,996.02
2023-04-01T11:01:28.038Z,996.01
2023-04-01T11:02:27.902Z,996.03
2023-04-01T11:03:28.012Z,996.03
2023-04-01T11:04:27.787Z,996.03
2023-04-01T11:05:27.774Z,996.04
2023-04-01T11:06:27.835Z,996.05
2023-04-01T11:07:27.748Z,996.05
2023-04-01T11:08:27.742Z,996.06
2023-04-01T11:09:27.748Z,996.07
2023-04-01T11:10:27.713Z,996.05
2023-04-01T11:11:27.848Z,996.08
2023-04-01T11:12:27.738Z,996.14
2023-04-01T11:13:27.719Z,996.13
2023-04-01T11:14:27.677Z,996.14
2023-04-01T11:15:27.703Z,996.13
2023-04-01T11:16:27.804Z,996.16
2023-04-01T11:17:27.663Z,996.17
2023-04-01T11:18:27.644Z,996.19
2023-04-01T11:19:27.633Z,996.20
2023-04-01T11:20:27.622Z,996.19
2023-04-01T11:21:27.718Z,996.20
2023-04-01T11:22:27.603Z,996.20
2023-04-01T11:23:27.608Z,996.23
2023-04-01T11:24:27.577Z,996.22
2023-04-01T11:25:27.589Z,996.23
2023-04-01T11:26:27.582Z,996.25
2023-04-01T11:27:27.541Z,996.25
2023-04-01T11:28:27.572Z,996.27
2023-04-01T11:29:27.556Z,996.27
2023-04-01T11:30:27.509Z,996.33
2023-04-01T11:31:27.598Z,996.33
2023-04-01T11:32:27.527Z,996.30
2023-04-01T11:33:27.472Z,996.29
2023-04-01T11:34:27.480Z,996.32
2023-04-01T11:35:27.478Z,996.37
2023-04-01T11:36:27.576Z,996.38
2023-04-01T11:37:27.495Z,996.37
2023-04-01T11:38:27.420Z,996.38
2023-04-01T11:39:27.408Z,996.38
2023-04-01T11:40:27.418Z,996.43
2023-04-01T11:41:27.419Z,996.42
2023-04-01T11:42:27.400Z,996.43
2023-04-01T11:43:33.428Z,996.45
2023-04-01T11:44:27.385Z,996.48
2023-04-01T11:45:27.344Z,996.48
2023-04-01T11:46:27.408Z,996.49
2023-04-01T11:47:27.350Z,996.50
2023-04-01T11:48:34.542Z,996.50
2023-04-01T11:49:27.974Z,996.51
2023-04-01T11:50:27.949Z,996.53
2023-04-01T11:51:27.288Z,996.55
2023-04-01T11:52:27.480Z,996.56
2023-04-01T11:53:27.300Z,996.56
2023-04-01T11:54:27.254Z,996.59
2023-04-01T11:55:27.894Z,996.60
2023-04-01T11:56:27.267Z,996.65
2023-04-01T11:57:27.332Z,996.66
2023-04-01T11:58:27.294Z,996.65
2023-04-01T11:59:27.268Z,996.67
2023-04-01T12:00:27.232Z,996.66
2023-04-01T12:01:27.281Z,996.72
2023-04-01T12:02:27.213Z,996.71
2023-04-01T12:03:27.272Z,996.73
2023-04-01T12:04:27.158Z,996.74
2023-04-01T12:05:27.131Z,996.74
2023-04-01T12:06:27.254Z,996.75
2023-04-01T12:07:27.145Z,996.77
2023-04-01T12:08:27.306Z,996.82
2023-04-01T12:09:27.896Z,996.80
2023-04-01T12:10:27.168Z,996.82
2023-04-01T12:11:27.094Z,996.83
2023-04-01T12:12:27.078Z,996.84
2023-04-01T12:13:28.432Z,996.86
2023-04-01T12:14:27.053Z,996.85
2023-04-01T12:15:27.026Z,996.87
2023-04-01T12:16:27.093Z,996.88
2023-04-01T12:17:27.097Z,996.89
2023-04-01T12:18:27.019Z,996.85
2023-04-01T12:19:27.043Z,996.88
2023-04-01T12:20:26.982Z,996.89
2023-04-01T12:21:26.994Z,996.90
2023-04-01T12:22:26.954Z,996.91
2023-04-01T12:23:26.950Z,996.92
2023-04-01T12:24:26.937Z,996.91
2023-04-01T12:25:26.930Z,996.95
2023-04-01T12:26:26.953Z,996.95
2023-04-01T12:27:26.923Z,996.96
2023-04-01T12:28:26.888Z,996.97